Weather reports worldwide

Advertisment
Aonach Mor, United Kingdom (3041): temperature & dewpoint: 31.05.2020 12:00:00 - 06.06.2020 12:00:00 (BST)Aonach Mor, United Kingdom (3041): wind speed & gusts: 31.05.2020 12:00:00 - 06.06.2020 12:00:00 (BST)Aonach Mor, United Kingdom (3041): wind direction: 31.05.2020 12:00:00 - 06.06.2020 12:00:00 (BST)
Date & Time tt [°C] td [°C] ff [km/h] ff [kn] fx [km/h] fx [kn] dd
06.06.2020 12:00:00 3,4 3,4 31 17 - - N
06.06.2020 11:00:00 3,1 3,1 26 14 - - N
06.06.2020 10:00:00 3,3 3,3 28 15 - - N
06.06.2020 09:00:00 2,8 2,8 34 18 - - N
06.06.2020 08:00:00 2,6 2,6 34 18 50 27 N
06.06.2020 07:00:00 2,7 2,7 37 20 50 27 N
06.06.2020 06:00:00 2,7 2,7 41 22 61 33 N
06.06.2020 05:00:00 2,7 2,7 44 24 59 32 N
06.06.2020 04:00:00 2,7 2,7 39 21 57 31 N
06.06.2020 03:00:00 2,8 2,8 39 21 61 33 N
06.06.2020 02:00:00 2,7 2,7 37 20 50 27 N
06.06.2020 01:00:00 2,6 2,6 34 18 - - NNW
06.06.2020 00:00:00 2,1 2,1 34 18 48 26 NNW
05.06.2020 23:00:00 0,5 0,5 35 19 54 29 NNW
05.06.2020 22:00:00 0,0 0,0 35 19 46 25 NW
05.06.2020 21:00:00 -0,2 -0,2 28 15 - - WNW
05.06.2020 20:00:00 -0,4 -0,4 31 17 48 26 WNW
05.06.2020 19:00:00 -0,5 -0,5 28 15 48 26 WNW
05.06.2020 18:00:00 -0,7 -0,7 28 15 57 31 W
05.06.2020 17:00:00 -0,8 -0,8 34 18 61 33 WNW
05.06.2020 16:00:00 -0,6 -0,6 35 19 54 29 NW
05.06.2020 15:00:00 -0,6 -0,6 39 21 55 30 NW
05.06.2020 14:00:00 -0,4 -0,4 28 15 52 28 NW
05.06.2020 13:00:00 -0,7 -1,3 29 16 52 28 NW
05.06.2020 12:00:00 -0,6 -1,2 31 17 46 25 NW
05.06.2020 11:00:00 -0,7 -0,7 24 13 - - NW
05.06.2020 10:00:00 -1,1 -1,1 29 16 - - NNW
05.06.2020 09:00:00 -1,4 -1,4 28 15 - - NW
05.06.2020 08:00:00 -1,7 -1,7 21 11 - - NNW
05.06.2020 07:00:00 -1,8 -1,8 28 15 - - NW
05.06.2020 06:00:00 -1,7 -1,7 26 14 - - NW
05.06.2020 05:00:00 -1,7 -1,7 21 11 - - NW
05.06.2020 04:00:00 -1,4 -1,4 18 10 - - NW
05.06.2020 03:00:00 -1,2 -1,2 21 11 - - NW
05.06.2020 02:00:00 -1,5 -1,5 16 9 - - NNW
05.06.2020 01:00:00 -1,5 -1,5 24 13 - - N
05.06.2020 00:00:00 0,0 0,0 22 12 - - NNW
04.06.2020 23:00:00 0,1 0,1 16 9 - - N
04.06.2020 22:00:00 0,3 0,3 16 9 - - N
04.06.2020 21:00:00 0,3 0,3 22 12 - - NNE
04.06.2020 20:00:00 0,9 -0,7 21 11 - - NNE
04.06.2020 19:00:00 1,4 1,3 18 10 - - NNE
04.06.2020 18:00:00 1,2 0,5 24 13 - - NNE
04.06.2020 17:00:00 2,2 1,8 21 11 - - NNE
04.06.2020 16:00:00 3,1 2,0 21 11 - - N
04.06.2020 15:00:00 3,5 -0,1 16 9 - - WNW
04.06.2020 14:00:00 3,2 1,2 21 11 - - NNW
04.06.2020 13:00:00 3,2 1,7 16 9 - - NW
04.06.2020 12:00:00 2,5 1,9 16 9 - - WNW
04.06.2020 11:00:00 2,9 2,6 13 7 - - WNW
04.06.2020 10:00:00 2,3 1,6 13 7 - - NW
04.06.2020 09:00:00 2,5 2,3 15 8 - - WNW
04.06.2020 08:00:00 2,3 2,3 13 7 - - WNW
04.06.2020 07:00:00 2,1 2,1 16 9 - - WSW
04.06.2020 06:00:00 1,8 1,8 18 10 - - WSW
04.06.2020 05:00:00 1,3 1,3 13 7 - - WSW
04.06.2020 04:00:00 -0,2 -0,2 9 5 - - W
04.06.2020 03:00:00 0,0 -0,2 13 7 - - W
04.06.2020 02:00:00 -0,2 -0,5 8 4 - - W
04.06.2020 01:00:00 - - - - - - -
04.06.2020 00:00:00 - - - - - - -
03.06.2020 23:00:00 - - - - - - -
03.06.2020 22:00:00 - - - - - - -
03.06.2020 21:00:00 - - - - - - -
03.06.2020 20:00:00 - - - - - - -
03.06.2020 19:00:00 - - - - - - -
03.06.2020 18:00:00 - - - - - - -
03.06.2020 17:00:00 - - - - - - -
03.06.2020 16:00:00 3,5 -3,4 24 13 - - N
03.06.2020 15:00:00 3,0 -4,2 26 14 - - N
03.06.2020 14:00:00 2,2 -2,6 16 9 - - N
03.06.2020 13:00:00 1,7 -1,3 28 15 - - NNE
03.06.2020 12:00:00 1,1 -0,1 31 17 46 25 NNE
03.06.2020 11:00:00 0,5 0,4 31 17 48 26 NNE
03.06.2020 10:00:00 0,0 0,0 34 18 52 28 NNE
03.06.2020 09:00:00 -0,2 -0,2 34 18 54 29 NNE
03.06.2020 08:00:00 -0,6 -0,6 28 15 68 37 NNE
03.06.2020 07:00:00 -0,5 -0,5 34 18 59 32 NNE
03.06.2020 06:00:00 0,0 0,0 41 22 74 40 NNE
03.06.2020 05:00:00 0,2 0,2 35 19 57 31 NNE
03.06.2020 04:00:00 0,4 0,4 37 20 59 32 NNE
03.06.2020 03:00:00 0,0 0,0 39 21 54 29 NNE
03.06.2020 02:00:00 0,8 0,8 37 20 52 28 NNE
03.06.2020 01:00:00 1,7 1,7 26 14 46 25 NNE
03.06.2020 00:00:00 2,3 2,3 28 15 46 25 NNE
02.06.2020 23:00:00 3,2 3,2 26 14 - - NNE
02.06.2020 22:00:00 3,8 3,8 26 14 - - NNE
02.06.2020 21:00:00 4,9 4,9 21 11 - - NNE
02.06.2020 20:00:00 6,5 6,5 11 6 - - WNW
02.06.2020 19:00:00 6,5 6,2 9 5 - - NW
02.06.2020 18:00:00 6,4 5,6 5 3 - - W
02.06.2020 17:00:00 7,1 5,9 13 7 - - WSW
02.06.2020 16:00:00 7,8 4,9 13 7 - - SSW
02.06.2020 15:00:00 7,8 6,8 11 6 - - WSW
02.06.2020 14:00:00 9,0 5,4 15 8 - - WSW
02.06.2020 13:00:00 9,6 4,2 9 5 - - WSW
02.06.2020 12:00:00 10,3 3,0 11 6 - - WSW
02.06.2020 11:00:00 9,9 1,4 15 8 - - WSW
02.06.2020 10:00:00 10,4 2,1 15 8 - - SW
02.06.2020 09:00:00 9,8 4,8 9 5 - - SW
02.06.2020 08:00:00 9,8 3,9 11 6 - - WSW
02.06.2020 07:00:00 9,8 3,4 8 4 - - SW
02.06.2020 06:00:00 9,4 4,7 8 4 - - SW
02.06.2020 05:00:00 9,5 4,9 16 9 - - WSW
02.06.2020 04:00:00 9,9 4,7 22 12 - - SW
02.06.2020 03:00:00 10,1 4,5 18 10 - - SW
02.06.2020 02:00:00 10,1 5,7 15 8 - - SW
02.06.2020 01:00:00 10,2 5,8 15 8 46 25 SW
02.06.2020 00:00:00 10,7 4,5 13 7 - - SW
01.06.2020 23:00:00 10,6 6,4 15 8 - - SW
01.06.2020 22:00:00 10,9 5,1 21 11 - - SSW
01.06.2020 21:00:00 11,6 3,5 18 10 - - SW
01.06.2020 20:00:00 12,4 1,5 15 8 - - WSW
01.06.2020 19:00:00 12,9 1,6 21 11 - - WSW
01.06.2020 18:00:00 12,4 1,6 18 10 - - SW
01.06.2020 17:00:00 12,5 2,8 28 15 - - SW
01.06.2020 16:00:00 12,8 3,0 18 10 - - SW
01.06.2020 15:00:00 12,5 1,9 11 6 - - WSW
01.06.2020 14:00:00 12,8 1,4 15 8 - - SSW
01.06.2020 13:00:00 12,3 0,8 15 8 - - SSW
01.06.2020 12:00:00 11,9 0,3 16 9 - - SSW
01.06.2020 11:00:00 11,2 0,4 13 7 - - SSW
01.06.2020 10:00:00 10,3 0,2 18 10 - - SSW
01.06.2020 09:00:00 9,3 0,4 24 13 - - S
01.06.2020 08:00:00 9,2 0,8 24 13 - - S
01.06.2020 07:00:00 9,6 -0,1 26 14 - - SSW
01.06.2020 06:00:00 9,8 1,7 28 15 - - SSW
01.06.2020 05:00:00 9,7 3,0 21 11 - - SSW
01.06.2020 04:00:00 10,0 3,1 18 10 - - SSW
01.06.2020 03:00:00 10,3 4,1 18 10 - - S
01.06.2020 02:00:00 10,0 4,4 16 9 - - SSE
01.06.2020 01:00:00 10,2 4,6 13 7 - - S
01.06.2020 00:00:00 10,5 3,0 15 8 - - SSE
31.05.2020 23:00:00 10,9 4,3 13 7 - - SE
31.05.2020 22:00:00 9,8 4,6 21 11 - - SE
31.05.2020 21:00:00 11,6 1,9 15 8 - - S
31.05.2020 20:00:00 12,0 0,9 16 9 - - SSW
31.05.2020 19:00:00 12,7 0,1 18 10 - - SSW
31.05.2020 18:00:00 13,0 -0,4 18 10 - - SW
31.05.2020 17:00:00 12,8 -1,4 21 11 - - SW
31.05.2020 16:00:00 12,2 -2,6 28 15 50 27 SSW
31.05.2020 15:00:00 12,0 -4,2 28 15 - - SSW
31.05.2020 14:00:00 12,1 -2,6 22 12 46 25 S
31.05.2020 13:00:00 10,1 1,1 29 16 - - SE
31.05.2020 12:00:00 9,4 1,3 31 17 48 26 SE

tt = temperature
td = dewpoint
ff = wind speed
fx = gusts
dd = wind direction

Next stations